createdAt,value
2022-11-06T00:00:30.085Z,22.4
2022-11-06T00:05:29.987Z,21.5
2022-11-06T00:10:29.801Z,18.0
2022-11-06T00:15:29.777Z,16.9
2022-11-06T00:20:29.954Z,17.6
2022-11-06T00:25:29.770Z,16.4
2022-11-06T00:30:29.762Z,18.0
2022-11-06T00:35:29.902Z,17.5
2022-11-06T00:40:29.900Z,17.6
2022-11-06T00:45:29.800Z,16.9
2022-11-06T00:50:29.872Z,16.4
2022-11-06T00:55:29.772Z,14.9
2022-11-06T01:00:29.726Z,14.5
2022-11-06T01:05:29.825Z,15.4
2022-11-06T01:10:29.701Z,14.5
2022-11-06T01:15:29.741Z,14.0
2022-11-06T01:20:30.069Z,14.3
2022-11-06T01:25:29.720Z,14.4
2022-11-06T01:30:29.764Z,13.9
2022-11-06T01:35:30.029Z,13.7
2022-11-06T01:40:29.921Z,14.1
2022-11-06T01:45:29.617Z,14.6
2022-11-06T01:50:30.505Z,13.8
2022-11-06T01:55:29.809Z,13.2
2022-11-06T02:00:29.732Z,14.0
2022-11-06T02:05:29.942Z,12.8
2022-11-06T02:10:29.757Z,12.7
2022-11-06T02:15:29.627Z,14.1
2022-11-06T02:20:29.578Z,13.9
2022-11-06T02:25:29.518Z,14.4
2022-11-06T02:30:29.588Z,12.9
2022-11-06T02:35:29.724Z,13.5
2022-11-06T02:40:29.567Z,14.4
2022-11-06T02:45:29.508Z,14.4
2022-11-06T02:50:29.647Z,14.7
2022-11-06T02:55:29.561Z,15.6
2022-11-06T03:00:29.526Z,13.8
2022-11-06T03:05:29.662Z,12.8
2022-11-06T03:10:29.493Z,13.8
2022-11-06T03:15:29.504Z,12.3
2022-11-06T03:20:29.731Z,12.8
2022-11-06T03:25:29.515Z,12.4
2022-11-06T03:30:29.546Z,11.7
2022-11-06T03:35:29.656Z,10.6
2022-11-06T03:40:29.549Z,12.4
2022-11-06T03:45:29.740Z,12.3
2022-11-06T03:50:29.431Z,11.2
2022-11-06T03:55:29.446Z,11.0
2022-11-06T04:00:29.416Z,11.4
2022-11-06T04:05:29.615Z,11.1
2022-11-06T04:10:29.376Z,10.6
2022-11-06T04:15:29.395Z,9.9
2022-11-06T04:20:29.431Z,11.4
2022-11-06T04:25:29.413Z,11.3
2022-11-06T04:30:29.401Z,11.9
2022-11-06T04:35:29.464Z,11.4
2022-11-06T04:40:29.290Z,10.0
2022-11-06T04:45:29.391Z,9.6
2022-11-06T04:50:29.585Z,10.6
2022-11-06T04:55:29.341Z,9.7
2022-11-06T05:00:29.422Z,8.4
2022-11-06T05:05:29.461Z,10.7
2022-11-06T05:10:29.602Z,11.8
2022-11-06T05:15:29.450Z,14.9
2022-11-06T05:20:29.520Z,11.5
2022-11-06T05:25:29.257Z,10.5
2022-11-06T05:30:29.265Z,11.0
2022-11-06T05:35:29.406Z,9.7
2022-11-06T05:40:29.241Z,10.5
2022-11-06T05:45:29.237Z,10.8
2022-11-06T05:50:29.383Z,9.2
2022-11-06T05:55:29.203Z,9.3
2022-11-06T06:00:29.394Z,9.1
2022-11-06T06:05:29.535Z,8.8
2022-11-06T06:10:29.204Z,10.1
2022-11-06T06:15:29.238Z,25.3
2022-11-06T06:20:30.010Z,15.0
2022-11-06T06:25:29.430Z,17.1
2022-11-06T06:30:29.232Z,19.3
2022-11-06T06:35:29.582Z,14.8
2022-11-06T06:40:29.111Z,27.6
2022-11-06T06:45:29.179Z,25.3
2022-11-06T06:50:29.391Z,25.2
2022-11-06T06:55:29.244Z,31.8
2022-11-06T07:00:29.263Z,30.6
2022-11-06T07:05:29.110Z,17.2
2022-11-06T07:10:29.229Z,15.6
2022-11-06T07:15:29.007Z,19.4
2022-11-06T07:20:29.259Z,19.5
2022-11-06T07:25:29.012Z,14.5
2022-11-06T07:30:29.043Z,20.5
2022-11-06T07:35:29.167Z,13.9
2022-11-06T07:40:28.999Z,22.1
2022-11-06T07:45:28.997Z,14.5
2022-11-06T07:50:29.090Z,16.3
2022-11-06T07:55:29.108Z,13.5
2022-11-06T08:00:28.990Z,12.9
2022-11-06T08:05:29.716Z,14.2
2022-11-06T08:10:28.951Z,53.5
2022-11-06T08:15:28.922Z,32.3
2022-11-06T08:20:29.146Z,20.9
2022-11-06T08:25:28.920Z,25.3
2022-11-06T08:30:28.909Z,28.5
2022-11-06T08:35:29.024Z,25.0
2022-11-06T08:40:31.077Z,21.7
2022-11-06T08:45:28.908Z,34.1
2022-11-06T08:50:29.052Z,18.8
2022-11-06T08:55:28.909Z,26.8
2022-11-06T09:00:28.878Z,24.5
2022-11-06T09:05:29.108Z,12.4
2022-11-06T09:10:28.983Z,35.2
2022-11-06T09:15:28.973Z,30.1
2022-11-06T09:20:29.024Z,39.0
2022-11-06T09:25:28.974Z,17.1
2022-11-06T09:30:28.980Z,15.5
2022-11-06T09:35:29.073Z,17.5
2022-11-06T09:40:28.901Z,15.0
2022-11-06T09:45:28.918Z,18.4
2022-11-06T09:50:28.976Z,17.4
2022-11-06T09:55:29.045Z,12.4
2022-11-06T10:00:28.747Z,8.2
2022-11-06T10:05:28.844Z,9.0
2022-11-06T10:10:28.866Z,7.4
2022-11-06T10:15:28.816Z,7.7
2022-11-06T10:20:28.896Z,8.0
2022-11-06T10:25:28.889Z,7.0
2022-11-06T10:30:28.892Z,6.5
2022-11-06T10:35:28.908Z,6.0
2022-11-06T10:40:28.846Z,4.0
2022-11-06T10:45:28.848Z,5.9
2022-11-06T10:50:28.913Z,4.4
2022-11-06T10:55:28.730Z,4.1
2022-11-06T11:00:28.658Z,5.3
2022-11-06T11:05:28.726Z,4.0
2022-11-06T11:10:28.854Z,4.8
2022-11-06T11:15:28.617Z,4.7
2022-11-06T11:20:28.669Z,5.5
2022-11-06T11:25:28.719Z,5.7
2022-11-06T11:30:28.796Z,5.9
2022-11-06T11:35:28.696Z,5.4
2022-11-06T11:40:28.609Z,4.8
2022-11-06T11:45:28.582Z,4.2
2022-11-06T11:50:28.578Z,4.6
2022-11-06T11:55:28.566Z,4.2
2022-11-06T12:00:28.687Z,6.4
2022-11-06T12:05:28.585Z,9.0
2022-11-06T12:10:28.668Z,4.7
2022-11-06T12:15:28.661Z,4.5
2022-11-06T12:20:28.523Z,4.4
2022-11-06T12:25:28.557Z,4.0
2022-11-06T12:30:28.729Z,3.8
2022-11-06T12:35:28.493Z,4.1
2022-11-06T12:40:28.515Z,5.1
2022-11-06T12:45:28.663Z,4.9
2022-11-06T12:50:28.442Z,6.0
2022-11-06T12:55:28.585Z,4.3
2022-11-06T13:00:31.692Z,4.4
2022-11-06T13:05:29.090Z,5.0
2022-11-06T13:10:28.518Z,4.7
2022-11-06T13:15:28.783Z,5.8
2022-11-06T13:20:28.604Z,10.0
2022-11-06T13:25:28.663Z,6.9
2022-11-06T13:30:28.732Z,7.1
2022-11-06T13:35:28.503Z,4.7
2022-11-06T13:40:28.477Z,6.3
2022-11-06T13:45:28.679Z,8.0
2022-11-06T13:50:28.460Z,3.7
2022-11-06T13:55:28.441Z,10.6
2022-11-06T14:00:28.490Z,21.0
2022-11-06T14:05:28.376Z,5.9
2022-11-06T14:10:28.420Z,5.3
2022-11-06T14:15:28.635Z,8.0
2022-11-06T14:20:28.519Z,10.7
2022-11-06T14:25:28.737Z,9.7
2022-11-06T14:30:50.378Z,8.6
2022-11-06T14:35:28.582Z,6.0
2022-11-06T14:40:28.443Z,6.1
2022-11-06T14:45:28.576Z,4.1
2022-11-06T14:50:39.010Z,7.6
2022-11-06T14:55:28.335Z,7.1
2022-11-06T15:00:28.589Z,8.0
2022-11-06T15:05:28.610Z,23.8
2022-11-06T15:10:29.192Z,46.9
2022-11-06T15:15:28.783Z,15.4
2022-11-06T15:20:28.720Z,33.4
2022-11-06T15:25:29.276Z,12.4
2022-11-06T15:30:29.781Z,9.0
2022-11-06T15:35:28.539Z,13.5
2022-11-06T15:40:28.402Z,9.4
2022-11-06T15:45:28.309Z,11.3
2022-11-06T15:50:28.411Z,14.2
2022-11-06T15:55:28.327Z,20.0
2022-11-06T16:00:28.475Z,19.2
2022-11-06T16:05:28.328Z,16.1
2022-11-06T16:10:28.292Z,16.0
2022-11-06T16:15:28.558Z,17.6
2022-11-06T16:20:28.207Z,31.4
2022-11-06T16:25:28.185Z,24.7
2022-11-06T16:30:28.361Z,31.6
2022-11-06T16:35:28.160Z,43.5
2022-11-06T16:40:28.631Z,29.8
2022-11-06T16:45:28.486Z,15.9
2022-11-06T16:50:28.518Z,21.2
2022-11-06T16:55:28.218Z,31.1
2022-11-06T17:00:28.694Z,22.9
2022-11-06T17:05:29.356Z,33.0
2022-11-06T17:10:28.822Z,55.0
2022-11-06T17:15:28.959Z,79.3
2022-11-06T17:20:28.745Z,66.9
2022-11-06T17:25:28.974Z,85.6
2022-11-06T17:30:28.836Z,73.2
2022-11-06T17:35:28.309Z,72.1
2022-11-06T17:40:28.156Z,44.2
2022-11-06T17:45:28.364Z,37.4
2022-11-06T17:50:28.074Z,45.7
2022-11-06T17:55:28.033Z,38.1
2022-11-06T18:00:28.244Z,32.1
2022-11-06T18:05:28.492Z,31.4
2022-11-06T18:10:30.393Z,30.0
2022-11-06T18:15:28.411Z,42.4
2022-11-06T18:20:28.436Z,31.2
2022-11-06T18:25:27.981Z,23.8
2022-11-06T18:30:28.419Z,23.7
2022-11-06T18:35:28.065Z,22.4
2022-11-06T18:40:28.508Z,26.3
2022-11-06T18:45:28.766Z,21.2
2022-11-06T18:50:28.929Z,22.6
2022-11-06T18:55:29.283Z,57.3
2022-11-06T19:00:29.363Z,74.3
2022-11-06T19:05:28.122Z,34.5
2022-11-06T19:10:29.819Z,15.7
2022-11-06T19:15:28.167Z,13.2
2022-11-06T19:20:28.145Z,17.1
2022-11-06T19:25:28.636Z,20.4
2022-11-06T19:30:28.542Z,20.3
2022-11-06T19:35:28.411Z,22.1
2022-11-06T19:40:28.212Z,29.7
2022-11-06T19:45:30.054Z,32.8
2022-11-06T19:50:53.596Z,32.5
2022-11-06T19:55:30.299Z,22.8
2022-11-06T20:00:28.881Z,19.2
2022-11-06T20:05:27.852Z,19.5
2022-11-06T20:10:28.151Z,24.0
2022-11-06T20:15:28.186Z,25.1
2022-11-06T20:20:34.763Z,22.5
2022-11-06T20:25:27.775Z,22.7
2022-11-06T20:30:30.620Z,18.1
2022-11-06T20:35:27.936Z,23.6
2022-11-06T20:40:33.609Z,21.7
2022-11-06T20:45:28.520Z,19.0
2022-11-06T20:50:28.894Z,20.4
2022-11-06T20:55:27.736Z,36.9
2022-11-06T21:00:27.847Z,25.0
2022-11-06T21:05:28.285Z,19.3
2022-11-06T21:10:27.721Z,20.8
2022-11-06T21:15:27.552Z,23.6
2022-11-06T21:20:28.068Z,27.3
2022-11-06T21:25:27.798Z,27.3
2022-11-06T21:30:27.641Z,38.8
2022-11-06T21:35:27.707Z,33.1
2022-11-06T21:40:27.637Z,32.6
2022-11-06T21:45:27.644Z,25.3
2022-11-06T21:50:29.929Z,33.8
2022-11-06T21:55:27.660Z,26.6
2022-11-06T22:00:27.513Z,23.4
2022-11-06T22:05:27.543Z,26.2
2022-11-06T22:10:27.516Z,31.0
2022-11-06T22:15:27.514Z,42.4
2022-11-06T22:20:27.694Z,33.6
2022-11-06T22:25:27.536Z,29.2
2022-11-06T22:30:27.447Z,27.4
2022-11-06T22:35:27.604Z,23.6
2022-11-06T22:40:27.490Z,25.3
2022-11-06T22:45:27.557Z,21.6
2022-11-06T22:50:27.719Z,22.6
2022-11-06T22:55:27.576Z,22.0
2022-11-06T23:00:27.408Z,20.2
2022-11-06T23:05:27.815Z,23.0
2022-11-06T23:10:27.405Z,23.6
2022-11-06T23:15:27.387Z,22.5
2022-11-06T23:20:27.501Z,21.2
2022-11-06T23:25:27.376Z,18.5
2022-11-06T23:30:27.331Z,18.1
2022-11-06T23:35:32.384Z,18.0
2022-11-06T23:40:27.391Z,17.7
2022-11-06T23:45:27.342Z,17.1
2022-11-06T23:50:27.408Z,16.5
2022-11-06T23:55:27.328Z,17.4
